Aérodrome :
LOGIN :

S'inscrire | Disclaimer

   EN    FR    IT 

 










Légende :    VFR   VFR Marginal   IFR   IFR Intensif   IFR Très Intensif
Visi : 
Plafond : 
>= 8 km
>= 3000ft
5 à 8 km
1000 à 3000 ft
1500m à 5 km
500 à 1000 ft
800 à 1500m
200 à 500 ft
< 800m
< 200 ft
Symboles :   Orages  Brouillard  Fortes neiges  Fortes précipitations  Vent > 20 kt
SIGMETs :   Divers  Orages  Givrage  Turbulence  Onde Orograph.  Cendres Volcan.







- Altitude de l'aérodrome : 162 ft
- Code IATA : BOD
- Voir les cartes d'approche


LFBD - Bordeaux / Merignac

DERNIER METAR :
  • 172300Z AUTO VRB02KT CAVOK 15/14 Q1016 TEMPO 3000 MIFG

METARs EXPIRÉS :
  • 172230Z AUTO 35002KT CAVOK 15/14 Q1016 TEMPO 3000 MIFG
  • 172200Z AUTO VRB02KT 9999 0750 R23/P2300 R05/1100D R29/P2300 BCFG FEW047 14/13 Q1016 TEMPO 3000 MIFG
  • 172130Z AUTO 01002KT CAVOK 15/13 Q1016 TEMPO 3000 MIFG
  • 172100Z AUTO 36002KT 9999 1400 R23/P2300 R05/1300U R29/P2300 FEW045 SCT094 15/14 Q1016 TEMPO 3000 MIFG
  • 172030Z AUTO 03003KT 360V070 CAVOK 15/14 Q1016 TEMPO 3000 MIFG

TAF TAF LFBD
Valide du 18 à 00h jusqu'au 19 à 06h UTC


172300Z 1800/1906 VRB02KT CAVOK TX22/1815Z TN12/1906Z
TEMPO 1800/1806 3000 MIFG
PROB40
TEMPO 1802/1807 0800 BCFG
ATIS : +33 5 57 92 81 04
Pas de NOTAMs connus pour ce terrain.



MET'MAP, la Météo Aéronautique d'un coup d'oeil ! - Copyright ORBIFLY Décembre 2007 - Disclaimer

ORBIFLY MET'MAP TEAM :

Programmation & Développement : Alexandra Zaïnal
Conception & Développement : Baudouin d'Aumeries
Co-Programmation & Développement : Marc-Olivier Méhu
Soutien technique & logistique : Manuel Goepfert

Contact : metmap@orbifly.com




SOURCES & CREDITS :

   NOAA